createdAt,value
2018-01-25T00:01:05.327Z,99.90
2018-01-25T00:03:32.813Z,99.90
2018-01-25T00:06:00.290Z,99.90
2018-01-25T00:08:27.809Z,99.90
2018-01-25T00:10:55.308Z,99.90
2018-01-25T00:13:22.840Z,99.90
2018-01-25T00:15:50.393Z,99.90
2018-01-25T00:18:17.895Z,99.90
2018-01-25T00:20:45.371Z,99.90
2018-01-25T00:23:12.952Z,99.90
2018-01-25T00:25:41.212Z,99.90
2018-01-25T00:28:09.516Z,99.90
2018-01-25T00:30:37.743Z,99.90
2018-01-25T00:33:05.341Z,99.90
2018-01-25T00:35:33.590Z,99.90
2018-01-25T00:38:01.073Z,99.90
2018-01-25T00:40:29.329Z,99.90
2018-01-25T00:42:56.928Z,99.90
2018-01-25T00:45:24.423Z,99.90
2018-01-25T00:47:51.981Z,99.90
2018-01-25T00:50:19.484Z,99.90
2018-01-25T00:52:47.743Z,99.90
2018-01-25T00:55:15.233Z,99.90
2018-01-25T00:57:42.733Z,99.90
2018-01-25T01:00:10.218Z,99.90
2018-01-25T01:02:37.805Z,99.90
2018-01-25T01:05:06.054Z,99.90
2018-01-25T01:07:33.644Z,99.90
2018-01-25T01:10:01.895Z,99.90
2018-01-25T01:12:29.383Z,99.90
2018-01-25T01:14:56.859Z,99.90
2018-01-25T01:17:25.079Z,99.90
2018-01-25T01:19:52.569Z,99.90
2018-01-25T01:22:20.134Z,99.90
2018-01-25T01:24:47.682Z,99.90
2018-01-25T01:27:15.935Z,99.90
2018-01-25T01:29:43.446Z,99.90
2018-01-25T01:32:10.931Z,99.90
2018-01-25T01:34:38.403Z,99.90
2018-01-25T01:37:05.935Z,99.90
2018-01-25T01:39:33.431Z,99.90
2018-01-25T01:42:00.943Z,99.90
2018-01-25T01:44:28.431Z,99.90
2018-01-25T01:46:55.933Z,99.90
2018-01-25T01:49:23.453Z,99.90
2018-01-25T01:51:50.947Z,99.90
2018-01-25T01:54:19.244Z,99.90
2018-01-25T01:56:46.732Z,99.90
2018-01-25T01:59:14.239Z,99.90
2018-01-25T02:01:42.505Z,99.90
2018-01-25T02:04:10.791Z,99.90
2018-01-25T02:06:39.066Z,99.90
2018-01-25T02:09:07.341Z,99.90
2018-01-25T02:11:35.586Z,99.90
2018-01-25T02:14:03.087Z,99.90
2018-01-25T02:16:30.580Z,99.90
2018-01-25T02:18:58.103Z,99.90
2018-01-25T02:21:25.608Z,99.90
2018-01-25T02:23:53.136Z,99.90
2018-01-25T02:26:20.640Z,99.90
2018-01-25T02:28:48.223Z,99.90
2018-01-25T02:31:16.504Z,99.90
2018-01-25T02:33:44.774Z,99.90
2018-01-25T02:36:13.799Z,99.90
2018-01-25T02:38:41.300Z,99.90
2018-01-25T02:41:08.787Z,99.90
2018-01-25T02:43:37.059Z,99.90
2018-01-25T02:46:05.310Z,99.90
2018-01-25T02:48:32.916Z,99.90
2018-01-25T02:51:00.447Z,99.90
2018-01-25T02:53:28.722Z,99.90
2018-01-25T02:55:56.302Z,99.90
2018-01-25T02:58:24.561Z,99.90
2018-01-25T03:00:52.828Z,99.90
2018-01-25T03:03:20.411Z,99.90
2018-01-25T03:05:48.662Z,99.90
2018-01-25T03:08:16.188Z,99.90
2018-01-25T03:10:43.678Z,99.90
2018-01-25T03:13:11.225Z,99.90
2018-01-25T03:15:39.704Z,99.90
2018-01-25T03:18:07.229Z,99.90
2018-01-25T03:20:34.739Z,99.90
2018-01-25T03:23:02.239Z,99.90
2018-01-25T03:25:29.741Z,99.90
2018-01-25T03:27:57.338Z,99.90
2018-01-25T03:30:25.623Z,99.90
2018-01-25T03:32:53.130Z,99.90
2018-01-25T03:35:20.627Z,99.90
2018-01-25T03:37:48.888Z,99.90
2018-01-25T03:40:16.389Z,99.90
2018-01-25T03:42:43.884Z,99.90
2018-01-25T03:45:11.386Z,99.90
2018-01-25T03:47:39.795Z,99.90
2018-01-25T03:50:07.297Z,99.90
2018-01-25T03:52:34.914Z,99.90
2018-01-25T03:55:02.455Z,99.90
2018-01-25T03:57:29.948Z,99.90
2018-01-25T03:59:57.465Z,99.90
2018-01-25T04:02:24.971Z,99.90
2018-01-25T04:04:52.471Z,99.90
2018-01-25T04:07:20.755Z,99.90
2018-01-25T04:09:49.035Z,99.90
2018-01-25T04:12:16.537Z,99.90
2018-01-25T04:14:44.052Z,99.90
2018-01-25T04:17:12.328Z,99.90
2018-01-25T04:19:39.851Z,99.90
2018-01-25T04:22:08.096Z,99.90
2018-01-25T04:24:35.587Z,99.90
2018-01-25T04:27:03.200Z,99.90
2018-01-25T04:29:30.707Z,99.90
2018-01-25T04:31:58.220Z,99.90
2018-01-25T04:34:25.752Z,99.90
2018-01-25T04:36:54.008Z,99.90
2018-01-25T04:39:21.587Z,99.90
2018-01-25T04:41:49.149Z,99.90
2018-01-25T04:44:16.665Z,99.90
2018-01-25T04:46:44.168Z,99.90
2018-01-25T04:49:11.719Z,99.90
2018-01-25T04:51:40.021Z,99.90
2018-01-25T04:54:07.520Z,99.90
2018-01-25T04:56:35.135Z,99.90
2018-01-25T04:59:02.664Z,99.90
2018-01-25T05:01:30.151Z,99.90
2018-01-25T05:03:57.718Z,99.90
2018-01-25T05:06:25.252Z,99.90
2018-01-25T05:08:53.527Z,99.90
2018-01-25T05:11:21.834Z,99.90
2018-01-25T05:13:49.360Z,99.90
2018-01-25T05:16:17.636Z,99.90
2018-01-25T05:18:45.946Z,99.90
2018-01-25T05:21:13.459Z,99.90
2018-01-25T05:23:40.947Z,99.90
2018-01-25T05:26:08.431Z,99.90
2018-01-25T05:28:35.968Z,99.90
2018-01-25T05:31:03.462Z,99.90
2018-01-25T05:33:30.983Z,99.90
2018-01-25T05:35:58.479Z,99.90
2018-01-25T05:38:25.998Z,99.90
2018-01-25T05:40:53.502Z,99.90
2018-01-25T05:43:21.035Z,99.90
2018-01-25T05:45:48.600Z,99.90
2018-01-25T05:48:16.101Z,99.90
2018-01-25T05:50:43.587Z,99.90
2018-01-25T05:53:11.095Z,99.90
2018-01-25T05:55:38.631Z,99.90
2018-01-25T05:58:06.147Z,99.90
2018-01-25T06:00:34.440Z,99.90
2018-01-25T06:03:01.963Z,99.90
2018-01-25T06:05:29.464Z,99.90
2018-01-25T06:07:57.015Z,99.90
2018-01-25T06:10:24.558Z,99.90
2018-01-25T06:12:52.047Z,99.90
2018-01-25T06:15:19.580Z,99.90
2018-01-25T06:17:47.162Z,99.90
2018-01-25T06:20:14.818Z,99.90
2018-01-25T06:22:42.336Z,99.90
2018-01-25T06:25:09.872Z,99.90
2018-01-25T06:27:37.339Z,99.90
2018-01-25T06:30:04.836Z,99.90
2018-01-25T06:32:33.112Z,99.90
2018-01-25T06:35:01.390Z,99.90
2018-01-25T06:37:29.651Z,99.90
2018-01-25T06:39:57.141Z,99.90
2018-01-25T06:42:24.675Z,99.90
2018-01-25T06:44:52.262Z,99.90
2018-01-25T06:47:19.782Z,99.90
2018-01-25T06:49:47.271Z,99.90
2018-01-25T06:52:15.571Z,99.90
2018-01-25T06:54:43.082Z,99.90
2018-01-25T06:57:10.579Z,99.90
2018-01-25T06:59:38.099Z,99.90
2018-01-25T07:02:05.685Z,99.90
2018-01-25T07:04:33.214Z,99.90
2018-01-25T07:07:00.703Z,99.90
2018-01-25T07:09:28.421Z,99.90
2018-01-25T07:11:56.025Z,99.90
2018-01-25T07:14:23.789Z,99.90
2018-01-25T07:16:51.331Z,99.90
2018-01-25T07:19:19.606Z,99.90
2018-01-25T07:21:47.179Z,99.90
2018-01-25T07:24:14.695Z,99.90
2018-01-25T07:26:42.291Z,99.90
2018-01-25T07:29:10.561Z,99.90
2018-01-25T07:31:38.851Z,99.90
2018-01-25T07:34:10.373Z,99.90
2018-01-25T07:36:37.889Z,99.90
2018-01-25T07:39:05.423Z,99.90
2018-01-25T07:41:33.680Z,99.90
2018-01-25T07:44:01.959Z,99.90
2018-01-25T07:46:30.247Z,99.90
2018-01-25T07:48:58.520Z,99.90
2018-01-25T07:51:26.798Z,99.90
2018-01-25T07:53:55.083Z,99.90
2018-01-25T07:56:23.349Z,99.90
2018-01-25T07:58:51.656Z,99.90
2018-01-25T08:01:19.156Z,99.90
2018-01-25T08:03:46.644Z,99.90
2018-01-25T08:06:14.917Z,99.90
2018-01-25T08:08:42.503Z,99.90
2018-01-25T08:11:09.999Z,99.90
2018-01-25T08:13:39.442Z,99.90
2018-01-25T08:16:13.312Z,99.90
2018-01-25T08:18:40.830Z,99.90
2018-01-25T08:21:08.407Z,99.90
2018-01-25T08:23:35.910Z,99.90
2018-01-25T08:26:04.203Z,99.90
2018-01-25T08:28:31.691Z,99.90
2018-01-25T08:30:59.200Z,99.90
2018-01-25T08:33:26.720Z,99.90
2018-01-25T08:35:54.216Z,99.90
2018-01-25T08:38:21.723Z,99.90
2018-01-25T08:40:49.216Z,99.90
2018-01-25T08:43:16.729Z,99.90
2018-01-25T08:45:45.007Z,99.90
2018-01-25T08:48:12.493Z,99.90
2018-01-25T08:50:40.017Z,99.90
2018-01-25T08:53:08.276Z,99.90
2018-01-25T08:55:35.789Z,99.90
2018-01-25T08:58:03.431Z,99.90
2018-01-25T09:00:30.931Z,99.90
2018-01-25T09:02:58.658Z,99.90
2018-01-25T09:05:26.157Z,99.80
2018-01-25T09:07:53.673Z,99.80
2018-01-25T09:10:21.224Z,99.60
2018-01-25T09:12:48.723Z,99.50
2018-01-25T09:15:16.211Z,99.50
2018-01-25T09:17:43.693Z,99.30
2018-01-25T09:20:11.952Z,99.10
2018-01-25T09:22:39.644Z,99.10
2018-01-25T09:25:07.918Z,99.20
2018-01-25T09:27:35.412Z,99.20
2018-01-25T09:30:03.022Z,99.10
2018-01-25T09:32:30.573Z,99.10
2018-01-25T09:34:58.823Z,99.00
2018-01-25T09:37:26.341Z,98.90
2018-01-25T09:39:54.185Z,99.00
2018-01-25T09:42:22.487Z,98.90
2018-01-25T09:44:49.986Z,98.90
2018-01-25T09:47:17.634Z,98.30
2018-01-25T09:49:45.242Z,98.40
2018-01-25T09:52:13.518Z,98.00
2018-01-25T09:54:41.812Z,98.10
2018-01-25T09:57:09.311Z,98.10
2018-01-25T09:59:36.817Z,98.20
2018-01-25T10:02:04.370Z,98.00
2018-01-25T10:04:32.637Z,97.70
2018-01-25T10:07:00.927Z,97.50
2018-01-25T10:09:29.315Z,97.30
2018-01-25T10:11:56.820Z,97.30
2018-01-25T10:14:24.305Z,97.30
2018-01-25T10:16:52.610Z,97.00
2018-01-25T10:19:20.174Z,97.00
2018-01-25T10:21:47.697Z,96.90
2018-01-25T10:24:15.194Z,96.50
2018-01-25T10:26:42.688Z,96.70
2018-01-25T10:29:10.298Z,96.10
2018-01-25T10:31:38.559Z,96.40
2018-01-25T10:34:06.911Z,96.30
2018-01-25T10:36:34.545Z,96.30
2018-01-25T10:39:02.189Z,96.60
2018-01-25T10:41:29.745Z,96.90
2018-01-25T10:43:57.205Z,97.30
2018-01-25T10:46:24.715Z,97.40
2018-01-25T10:48:52.320Z,97.50
2018-01-25T10:51:19.850Z,97.50
2018-01-25T10:53:48.166Z,97.90
2018-01-25T10:56:15.665Z,97.60
2018-01-25T10:58:43.964Z,97.50
2018-01-25T11:01:17.993Z,97.50
2018-01-25T11:03:46.391Z,97.50
2018-01-25T11:06:13.877Z,97.50
2018-01-25T11:08:41.390Z,97.60
2018-01-25T11:11:09.662Z,97.30
2018-01-25T11:13:38.017Z,97.00
2018-01-25T11:16:05.693Z,97.00
2018-01-25T11:18:33.959Z,97.10
2018-01-25T11:21:01.554Z,97.10
2018-01-25T11:23:29.134Z,99.80
2018-01-25T11:25:56.627Z,98.60
2018-01-25T11:28:24.140Z,99.90
2018-01-25T11:30:51.623Z,99.90
2018-01-25T11:33:19.160Z,97.70
2018-01-25T11:35:46.800Z,99.70
2018-01-25T11:38:15.052Z,99.80
2018-01-25T11:40:42.631Z,99.70
2018-01-25T11:43:10.882Z,98.50
2018-01-25T11:45:39.191Z,96.60
2018-01-25T11:48:06.745Z,96.60
2018-01-25T11:50:34.240Z,96.70
2018-01-25T11:53:01.794Z,96.90
2018-01-25T11:55:29.284Z,97.20
2018-01-25T11:57:56.776Z,97.10
2018-01-25T12:00:25.052Z,97.40
2018-01-25T12:02:53.299Z,97.30
2018-01-25T12:05:20.817Z,97.30
2018-01-25T12:07:48.302Z,97.20
2018-01-25T12:10:15.799Z,97.50
2018-01-25T12:12:44.095Z,97.40
2018-01-25T12:15:11.591Z,97.40
2018-01-25T12:17:39.112Z,97.10
2018-01-25T12:20:06.667Z,97.10
2018-01-25T12:22:34.218Z,97.10
2018-01-25T12:25:02.487Z,97.30
2018-01-25T12:27:30.786Z,97.40
2018-01-25T12:29:58.334Z,97.40
2018-01-25T12:32:26.652Z,97.30
2018-01-25T12:34:54.117Z,97.20
2018-01-25T12:37:21.641Z,97.40
2018-01-25T12:39:49.152Z,97.40
2018-01-25T12:42:16.738Z,97.40
2018-01-25T12:44:45.068Z,97.40
2018-01-25T12:47:12.544Z,97.40
2018-01-25T12:49:40.032Z,97.50
2018-01-25T12:52:09.126Z,97.50
2018-01-25T12:54:37.378Z,97.60
2018-01-25T12:57:04.985Z,97.60
2018-01-25T12:59:32.531Z,97.40
2018-01-25T13:02:00.829Z,97.20
2018-01-25T13:04:28.326Z,97.20
2018-01-25T13:06:55.943Z,97.10
2018-01-25T13:09:23.443Z,97.10
2018-01-25T13:11:51.050Z,97.10
2018-01-25T13:14:19.425Z,97.00
2018-01-25T13:16:46.922Z,97.00
2018-01-25T13:19:14.461Z,97.20
2018-01-25T13:21:45.092Z,97.00
2018-01-25T13:24:12.612Z,97.10
2018-01-25T13:26:40.104Z,97.00
2018-01-25T13:29:07.601Z,96.90
2018-01-25T13:31:35.110Z,97.00
2018-01-25T13:34:02.620Z,97.00
2018-01-25T13:36:30.140Z,96.90
2018-01-25T13:38:57.641Z,96.90
2018-01-25T13:41:25.143Z,97.00
2018-01-25T13:43:53.410Z,97.20
2018-01-25T13:46:20.927Z,97.20
2018-01-25T13:48:48.493Z,97.10
2018-01-25T13:51:16.031Z,97.10
2018-01-25T13:53:43.585Z,97.00
2018-01-25T13:56:11.107Z,96.90
2018-01-25T13:58:38.634Z,97.00
2018-01-25T14:01:06.493Z,97.30
2018-01-25T14:03:33.701Z,97.50
2018-01-25T14:06:01.157Z,97.60
2018-01-25T14:08:28.717Z,97.40
2018-01-25T14:10:56.221Z,97.30
2018-01-25T14:13:23.770Z,97.50
2018-01-25T14:15:51.541Z,97.40
2018-01-25T14:18:19.044Z,97.30
2018-01-25T14:20:46.541Z,97.40
2018-01-25T14:23:14.153Z,97.60
2018-01-25T14:25:41.759Z,97.40
2018-01-25T14:28:09.296Z,97.50
2018-01-25T14:30:37.101Z,97.50
2018-01-25T14:33:04.597Z,97.40
2018-01-25T14:35:32.376Z,97.50
2018-01-25T14:37:59.886Z,97.50
2018-01-25T14:40:27.375Z,97.60
2018-01-25T14:42:54.872Z,97.60
2018-01-25T14:45:22.395Z,97.60
2018-01-25T14:47:49.944Z,97.50
2018-01-25T14:50:18.225Z,98.00
2018-01-25T14:52:46.496Z,97.60
2018-01-25T14:55:15.647Z,97.40
2018-01-25T14:57:43.175Z,97.40
2018-01-25T15:00:11.434Z,97.40
2018-01-25T15:02:38.976Z,97.40
2018-01-25T15:05:06.576Z,97.50
2018-01-25T15:07:34.070Z,97.60
2018-01-25T15:10:01.587Z,97.60
2018-01-25T15:12:29.846Z,97.50
2018-01-25T15:14:58.143Z,97.70
2018-01-25T15:17:26.434Z,97.70
2018-01-25T15:19:53.954Z,97.60
2018-01-25T15:22:21.485Z,97.70
2018-01-25T15:24:48.982Z,97.70
2018-01-25T15:27:23.028Z,98.50
2018-01-25T15:29:50.524Z,98.90
2018-01-25T15:32:18.111Z,98.60
2018-01-25T15:34:46.375Z,99.30
2018-01-25T15:37:13.968Z,99.10
2018-01-25T15:39:42.226Z,99.10
2018-01-25T15:42:10.595Z,99.20
2018-01-25T15:44:38.123Z,99.20
2018-01-25T15:47:05.626Z,99.20
2018-01-25T15:49:33.891Z,99.20
2018-01-25T15:52:01.396Z,99.20
2018-01-25T15:54:28.958Z,99.40
2018-01-25T15:56:56.470Z,99.90
2018-01-25T15:59:23.948Z,99.90
2018-01-25T16:01:51.449Z,99.90
2018-01-25T16:04:18.989Z,99.90
2018-01-25T16:06:46.494Z,99.90
2018-01-25T16:09:14.078Z,99.90
2018-01-25T16:11:42.335Z,99.90
2018-01-25T16:14:09.841Z,99.90
2018-01-25T16:16:37.425Z,99.90
2018-01-25T16:19:04.939Z,99.90
2018-01-25T16:21:33.209Z,99.90
2018-01-25T16:24:01.480Z,99.90
2018-01-25T16:26:29.739Z,99.90
2018-01-25T16:28:57.232Z,99.90
2018-01-25T16:31:24.783Z,99.90
2018-01-25T16:33:53.157Z,99.90
2018-01-25T16:36:21.408Z,99.90
2018-01-25T16:38:48.891Z,99.90
2018-01-25T16:41:17.176Z,99.90
2018-01-25T16:43:45.476Z,99.50
2018-01-25T16:46:13.005Z,99.50
2018-01-25T16:48:40.486Z,99.30
2018-01-25T16:51:07.988Z,99.20
2018-01-25T16:53:35.484Z,99.30
2018-01-25T16:56:03.782Z,99.50
2018-01-25T16:58:31.347Z,99.50
2018-01-25T17:00:58.861Z,99.50
2018-01-25T17:03:27.115Z,99.80
2018-01-25T17:05:54.737Z,99.40
2018-01-25T17:08:22.229Z,99.50
2018-01-25T17:10:49.737Z,99.60
2018-01-25T17:13:17.231Z,99.50
2018-01-25T17:15:44.748Z,99.40
2018-01-25T17:18:13.042Z,99.10
2018-01-25T17:20:40.601Z,99.00
2018-01-25T17:23:08.169Z,99.00
2018-01-25T17:25:35.730Z,98.90
2018-01-25T17:28:03.266Z,99.10
2018-01-25T17:30:30.825Z,99.20
2018-01-25T17:32:59.114Z,99.00
2018-01-25T17:35:26.689Z,99.00
2018-01-25T17:37:54.660Z,99.00
2018-01-25T17:40:22.300Z,99.10
2018-01-25T17:42:49.807Z,99.10
2018-01-25T17:45:17.402Z,99.20
2018-01-25T17:47:44.978Z,99.10
2018-01-25T17:50:12.467Z,99.00
2018-01-25T17:52:39.957Z,99.00
2018-01-25T17:55:07.674Z,99.00
2018-01-25T17:57:35.159Z,99.00
2018-01-25T18:00:02.687Z,98.90
2018-01-25T18:02:30.176Z,98.80
2018-01-25T18:04:57.700Z,98.70
2018-01-25T18:07:25.187Z,98.90
2018-01-25T18:09:52.666Z,98.80
2018-01-25T18:12:20.196Z,98.80
2018-01-25T18:14:47.687Z,98.80
2018-01-25T18:17:15.948Z,98.90
2018-01-25T18:19:43.462Z,98.70
2018-01-25T18:22:10.947Z,98.80
2018-01-25T18:24:38.576Z,98.90
2018-01-25T18:27:06.059Z,98.80
2018-01-25T18:29:33.589Z,99.00
2018-01-25T18:32:01.860Z,98.80
2018-01-25T18:34:30.127Z,98.90
2018-01-25T18:36:58.412Z,99.00
2018-01-25T18:39:26.687Z,98.90
2018-01-25T18:41:54.954Z,98.90
2018-01-25T18:44:23.363Z,98.90
2018-01-25T18:46:50.893Z,98.90
2018-01-25T18:49:19.188Z,98.90
2018-01-25T18:51:46.687Z,98.90
2018-01-25T18:54:14.177Z,98.90
2018-01-25T18:56:41.683Z,98.90
2018-01-25T18:59:09.219Z,98.90
2018-01-25T19:01:36.741Z,98.80
2018-01-25T19:04:04.333Z,98.70
2018-01-25T19:06:32.610Z,98.90
2018-01-25T19:09:00.911Z,98.90
2018-01-25T19:11:29.184Z,99.00
2018-01-25T19:13:56.691Z,98.90
2018-01-25T19:16:24.296Z,99.00
2018-01-25T19:18:51.804Z,98.90
2018-01-25T19:21:19.316Z,98.90
2018-01-25T19:23:46.831Z,98.80
2018-01-25T19:26:14.423Z,98.80
2018-01-25T19:28:42.671Z,98.90
2018-01-25T19:31:10.181Z,98.90
2018-01-25T19:33:37.743Z,98.80
2018-01-25T19:36:05.243Z,98.80
2018-01-25T19:38:32.752Z,98.70
2018-01-25T19:41:00.252Z,98.70
2018-01-25T19:43:27.779Z,98.60
2018-01-25T19:45:55.269Z,98.70
2018-01-25T19:48:22.822Z,98.70
2018-01-25T19:50:50.359Z,98.70
2018-01-25T19:53:17.883Z,98.80
2018-01-25T19:55:46.152Z,98.80
2018-01-25T19:58:14.415Z,98.80
2018-01-25T20:00:41.998Z,98.70
2018-01-25T20:03:10.272Z,98.80
2018-01-25T20:05:38.528Z,98.80
2018-01-25T20:08:06.123Z,98.80
2018-01-25T20:10:33.675Z,98.70
2018-01-25T20:13:01.968Z,98.70
2018-01-25T20:15:29.508Z,98.70
2018-01-25T20:17:57.770Z,98.80
2018-01-25T20:20:26.018Z,98.60
2018-01-25T20:22:53.623Z,98.60
2018-01-25T20:25:21.130Z,98.80
2018-01-25T20:27:48.690Z,98.70
2018-01-25T20:30:16.187Z,98.70
2018-01-25T20:32:44.449Z,98.90
2018-01-25T20:35:11.950Z,98.90
2018-01-25T20:37:39.440Z,98.90
2018-01-25T20:40:06.951Z,98.90
2018-01-25T20:42:34.456Z,98.90
2018-01-25T20:45:01.968Z,99.00
2018-01-25T20:47:29.617Z,98.90
2018-01-25T20:49:57.903Z,98.90
2018-01-25T20:52:25.444Z,98.90
2018-01-25T20:54:52.944Z,99.00
2018-01-25T20:57:20.432Z,98.90
2018-01-25T20:59:47.920Z,98.60
2018-01-25T21:02:15.407Z,98.60
2018-01-25T21:04:42.989Z,98.70
2018-01-25T21:07:10.533Z,98.70
2018-01-25T21:09:38.028Z,98.80
2018-01-25T21:12:05.548Z,98.80
2018-01-25T21:14:33.096Z,98.70
2018-01-25T21:17:00.640Z,98.60
2018-01-25T21:19:28.173Z,98.60
2018-01-25T21:21:55.758Z,98.70
2018-01-25T21:24:24.006Z,98.70
2018-01-25T21:26:51.508Z,98.70
2018-01-25T21:29:19.076Z,98.80
2018-01-25T21:31:46.590Z,98.70
2018-01-25T21:34:14.078Z,98.70
2018-01-25T21:36:41.664Z,98.60
2018-01-25T21:39:09.166Z,98.50
2018-01-25T21:41:36.681Z,98.50
2018-01-25T21:44:04.321Z,98.60
2018-01-25T21:46:32.578Z,99.90
2018-01-25T21:49:00.846Z,99.90
2018-01-25T21:51:29.032Z,99.90
2018-01-25T21:53:57.300Z,97.70
2018-01-25T21:56:25.640Z,98.10
2018-01-25T21:58:53.286Z,98.10
2018-01-25T22:01:20.784Z,98.10
2018-01-25T22:03:48.303Z,98.30
2018-01-25T22:06:15.783Z,98.30
2018-01-25T22:08:43.500Z,98.50
2018-01-25T22:11:11.811Z,98.40
2018-01-25T22:13:39.313Z,98.40
2018-01-25T22:16:06.939Z,98.60
2018-01-25T22:18:34.441Z,98.80
2018-01-25T22:21:02.831Z,98.50
2018-01-25T22:23:31.089Z,98.60
2018-01-25T22:25:59.360Z,98.70
2018-01-25T22:28:26.993Z,98.70
2018-01-25T22:30:54.497Z,98.80
2018-01-25T22:33:22.767Z,99.00
2018-01-25T22:35:51.057Z,99.10
2018-01-25T22:38:19.345Z,99.20
2018-01-25T22:40:46.851Z,99.20
2018-01-25T22:43:14.346Z,99.20
2018-01-25T22:45:42.616Z,99.10
2018-01-25T22:48:10.887Z,99.00
2018-01-25T22:50:38.374Z,99.00
2018-01-25T22:53:05.875Z,99.00
2018-01-25T22:55:33.779Z,99.10
2018-01-25T22:58:02.042Z,98.90
2018-01-25T23:00:40.198Z,99.00
2018-01-25T23:03:07.736Z,98.90
2018-01-25T23:05:35.223Z,99.00
2018-01-25T23:08:02.748Z,99.10
2018-01-25T23:10:31.020Z,99.20
2018-01-25T23:12:59.278Z,99.20
2018-01-25T23:15:26.776Z,99.20
2018-01-25T23:17:54.327Z,99.20
2018-01-25T23:20:21.851Z,99.40
2018-01-25T23:22:49.444Z,99.30
2018-01-25T23:25:17.001Z,99.30
2018-01-25T23:27:44.509Z,99.30
2018-01-25T23:30:12.007Z,99.30
2018-01-25T23:32:40.307Z,99.40
2018-01-25T23:35:07.865Z,99.30
2018-01-25T23:37:35.407Z,99.30
2018-01-25T23:40:04.822Z,99.20
2018-01-25T23:42:32.309Z,99.20
2018-01-25T23:44:59.830Z,99.20
2018-01-25T23:47:28.107Z,99.30
2018-01-25T23:49:56.468Z,99.30
2018-01-25T23:52:24.733Z,99.60
2018-01-25T23:54:52.340Z,99.30
2018-01-25T23:57:19.863Z,99.40
2018-01-25T23:59:47.473Z,99.30
